sensor_id;sensor_type;location;lat;lon;timestamp;temperature;humidity
37646;DHT22;23489;49.600;6.138;2024-02-28T00:00:01;2.80;99.90
37646;DHT22;23489;49.600;6.138;2024-02-28T00:02:26;2.80;99.90
37646;DHT22;23489;49.600;6.138;2024-02-28T00:04:53;2.80;99.90
37646;DHT22;23489;49.600;6.138;2024-02-28T00:07:19;2.80;99.90
37646;DHT22;23489;49.600;6.138;2024-02-28T00:09:44;2.80;99.90
37646;DHT22;23489;49.600;6.138;2024-02-28T00:12:10;2.80;99.90
37646;DHT22;23489;49.600;6.138;2024-02-28T00:14:36;2.80;99.90
37646;DHT22;23489;49.600;6.138;2024-02-28T00:17:02;2.80;99.90
37646;DHT22;23489;49.600;6.138;2024-02-28T00:19:27;2.80;99.90
37646;DHT22;23489;49.600;6.138;2024-02-28T00:21:53;2.90;99.90
37646;DHT22;23489;49.600;6.138;2024-02-28T00:24:19;2.90;99.90
37646;DHT22;23489;49.600;6.138;2024-02-28T00:26:45;3.00;99.90
37646;DHT22;23489;49.600;6.138;2024-02-28T00:29:11;3.00;99.90
37646;DHT22;23489;49.600;6.138;2024-02-28T00:31:36;3.00;99.90
37646;DHT22;23489;49.600;6.138;2024-02-28T00:34:02;3.00;99.90
37646;DHT22;23489;49.600;6.138;2024-02-28T00:36:27;3.00;99.90
37646;DHT22;23489;49.600;6.138;2024-02-28T00:38:53;3.10;99.90
37646;DHT22;23489;49.600;6.138;2024-02-28T00:41:19;3.10;99.90
37646;DHT22;23489;49.600;6.138;2024-02-28T00:43:45;3.20;99.90
37646;DHT22;23489;49.600;6.138;2024-02-28T00:46:10;3.20;99.90
37646;DHT22;23489;49.600;6.138;2024-02-28T00:48:39;3.20;99.90
37646;DHT22;23489;49.600;6.138;2024-02-28T00:51:05;3.30;99.90
37646;DHT22;23489;49.600;6.138;2024-02-28T00:53:31;3.30;99.90
37646;DHT22;23489;49.600;6.138;2024-02-28T00:55:57;3.40;99.90
37646;DHT22;23489;49.600;6.138;2024-02-28T00:58:23;3.40;99.90
37646;DHT22;23489;49.600;6.138;2024-02-28T01:00:49;3.40;99.90
37646;DHT22;23489;49.600;6.138;2024-02-28T01:03:15;3.40;99.90
37646;DHT22;23489;49.600;6.138;2024-02-28T01:05:41;3.40;99.90
37646;DHT22;23489;49.600;6.138;2024-02-28T01:08:07;3.40;99.90
37646;DHT22;23489;49.600;6.138;2024-02-28T01:10:35;3.40;99.90
37646;DHT22;23489;49.600;6.138;2024-02-28T01:13:02;3.40;99.90
37646;DHT22;23489;49.600;6.138;2024-02-28T01:15:28;3.40;99.90
37646;DHT22;23489;49.600;6.138;2024-02-28T01:17:54;3.40;99.90
37646;DHT22;23489;49.600;6.138;2024-02-28T01:20:19;3.40;99.90
37646;DHT22;23489;49.600;6.138;2024-02-28T01:22:45;3.40;99.90
37646;DHT22;23489;49.600;6.138;2024-02-28T01:25:11;3.30;99.90
37646;DHT22;23489;49.600;6.138;2024-02-28T01:27:36;3.30;99.90
37646;DHT22;23489;49.600;6.138;2024-02-28T01:30:02;3.40;99.90
37646;DHT22;23489;49.600;6.138;2024-02-28T01:32:29;3.30;99.90
37646;DHT22;23489;49.600;6.138;2024-02-28T01:34:55;3.30;99.90
37646;DHT22;23489;49.600;6.138;2024-02-28T01:37:21;3.40;99.90
37646;DHT22;23489;49.600;6.138;2024-02-28T01:39:46;3.40;99.90
37646;DHT22;23489;49.600;6.138;2024-02-28T01:42:14;3.40;99.90
37646;DHT22;23489;49.600;6.138;2024-02-28T01:44:47;3.30;99.90
37646;DHT22;23489;49.600;6.138;2024-02-28T01:47:14;3.30;99.90
37646;DHT22;23489;49.600;6.138;2024-02-28T01:49:41;3.30;99.90
37646;DHT22;23489;49.600;6.138;2024-02-28T01:52:09;3.30;99.90
37646;DHT22;23489;49.600;6.138;2024-02-28T01:54:35;3.20;99.90
37646;DHT22;23489;49.600;6.138;2024-02-28T01:57:01;3.20;99.90
37646;DHT22;23489;49.600;6.138;2024-02-28T01:59:28;3.20;99.90
37646;DHT22;23489;49.600;6.138;2024-02-28T02:01:55;3.10;99.90
37646;DHT22;23489;49.600;6.138;2024-02-28T02:04:21;3.10;99.90
37646;DHT22;23489;49.600;6.138;2024-02-28T02:06:48;3.10;99.90
37646;DHT22;23489;49.600;6.138;2024-02-28T02:09:15;3.10;99.90
37646;DHT22;23489;49.600;6.138;2024-02-28T02:11:41;3.20;99.90
37646;DHT22;23489;49.600;6.138;2024-02-28T02:14:07;3.20;99.90
37646;DHT22;23489;49.600;6.138;2024-02-28T02:16:33;3.20;99.90
37646;DHT22;23489;49.600;6.138;2024-02-28T02:18:58;3.10;99.90
37646;DHT22;23489;49.600;6.138;2024-02-28T02:21:29;3.10;99.90
37646;DHT22;23489;49.600;6.138;2024-02-28T02:23:55;3.10;99.90
37646;DHT22;23489;49.600;6.138;2024-02-28T02:26:21;3.00;99.90
37646;DHT22;23489;49.600;6.138;2024-02-28T02:28:47;3.00;99.90
37646;DHT22;23489;49.600;6.138;2024-02-28T02:31:16;2.90;99.90
37646;DHT22;23489;49.600;6.138;2024-02-28T02:33:41;2.90;99.90
37646;DHT22;23489;49.600;6.138;2024-02-28T02:36:07;2.90;99.90
37646;DHT22;23489;49.600;6.138;2024-02-28T02:38:33;3.00;99.90
37646;DHT22;23489;49.600;6.138;2024-02-28T02:40:58;2.90;99.90
37646;DHT22;23489;49.600;6.138;2024-02-28T02:43:24;2.90;99.90
37646;DHT22;23489;49.600;6.138;2024-02-28T02:45:49;2.90;99.90
37646;DHT22;23489;49.600;6.138;2024-02-28T02:48:15;2.90;99.90
37646;DHT22;23489;49.600;6.138;2024-02-28T02:50:41;2.90;99.90
37646;DHT22;23489;49.600;6.138;2024-02-28T02:53:07;2.90;99.90
37646;DHT22;23489;49.600;6.138;2024-02-28T02:55:33;2.90;99.90
37646;DHT22;23489;49.600;6.138;2024-02-28T02:57:58;2.80;99.90
37646;DHT22;23489;49.600;6.138;2024-02-28T03:00:24;2.80;99.90
37646;DHT22;23489;49.600;6.138;2024-02-28T03:02:50;2.80;99.90
37646;DHT22;23489;49.600;6.138;2024-02-28T03:05:15;2.90;99.90
37646;DHT22;23489;49.600;6.138;2024-02-28T03:07:41;2.80;99.90
37646;DHT22;23489;49.600;6.138;2024-02-28T03:10:07;2.80;99.90
37646;DHT22;23489;49.600;6.138;2024-02-28T03:12:33;2.80;99.90
37646;DHT22;23489;49.600;6.138;2024-02-28T03:15:00;2.80;99.90
37646;DHT22;23489;49.600;6.138;2024-02-28T03:17:25;2.80;99.90
37646;DHT22;23489;49.600;6.138;2024-02-28T03:19:51;2.80;99.90
37646;DHT22;23489;49.600;6.138;2024-02-28T03:22:16;2.80;99.90
37646;DHT22;23489;49.600;6.138;2024-02-28T03:24:42;2.70;99.90
37646;DHT22;23489;49.600;6.138;2024-02-28T03:27:08;2.60;99.90
37646;DHT22;23489;49.600;6.138;2024-02-28T03:29:33;2.60;99.90
37646;DHT22;23489;49.600;6.138;2024-02-28T03:31:59;2.50;99.90
37646;DHT22;23489;49.600;6.138;2024-02-28T03:34:24;2.60;99.90
37646;DHT22;23489;49.600;6.138;2024-02-28T03:36:50;2.50;99.90
37646;DHT22;23489;49.600;6.138;2024-02-28T03:39:16;2.50;99.90
37646;DHT22;23489;49.600;6.138;2024-02-28T03:41:42;2.50;99.90
37646;DHT22;23489;49.600;6.138;2024-02-28T03:44:07;2.50;99.90
37646;DHT22;23489;49.600;6.138;2024-02-28T03:46:33;2.50;99.90
37646;DHT22;23489;49.600;6.138;2024-02-28T03:48:59;2.50;99.90
37646;DHT22;23489;49.600;6.138;2024-02-28T03:51:24;2.60;99.90
37646;DHT22;23489;49.600;6.138;2024-02-28T03:53:50;2.60;99.90
37646;DHT22;23489;49.600;6.138;2024-02-28T03:56:22;2.50;99.90
37646;DHT22;23489;49.600;6.138;2024-02-28T03:58:49;2.50;99.90
37646;DHT22;23489;49.600;6.138;2024-02-28T04:01:14;2.50;99.90
37646;DHT22;23489;49.600;6.138;2024-02-28T04:03:40;2.60;99.90
37646;DHT22;23489;49.600;6.138;2024-02-28T04:06:06;2.50;99.90
37646;DHT22;23489;49.600;6.138;2024-02-28T04:08:31;2.40;99.90
37646;DHT22;23489;49.600;6.138;2024-02-28T04:10:57;2.40;99.90
37646;DHT22;23489;49.600;6.138;2024-02-28T04:13:23;2.40;99.90
37646;DHT22;23489;49.600;6.138;2024-02-28T04:15:48;2.40;99.90
37646;DHT22;23489;49.600;6.138;2024-02-28T04:18:14;2.40;99.90
37646;DHT22;23489;49.600;6.138;2024-02-28T04:20:40;2.40;99.90
37646;DHT22;23489;49.600;6.138;2024-02-28T04:23:05;2.40;99.90
37646;DHT22;23489;49.600;6.138;2024-02-28T04:25:31;2.30;99.90
37646;DHT22;23489;49.600;6.138;2024-02-28T04:27:56;2.30;99.90
37646;DHT22;23489;49.600;6.138;2024-02-28T04:30:24;2.30;99.90
37646;DHT22;23489;49.600;6.138;2024-02-28T04:32:50;2.30;99.90
37646;DHT22;23489;49.600;6.138;2024-02-28T04:35:16;2.30;99.90
37646;DHT22;23489;49.600;6.138;2024-02-28T04:37:44;2.30;99.90
37646;DHT22;23489;49.600;6.138;2024-02-28T04:40:10;2.30;99.90
37646;DHT22;23489;49.600;6.138;2024-02-28T04:42:36;2.30;99.90
37646;DHT22;23489;49.600;6.138;2024-02-28T04:45:02;2.30;99.90
37646;DHT22;23489;49.600;6.138;2024-02-28T04:47:28;2.30;99.90
37646;DHT22;23489;49.600;6.138;2024-02-28T04:49:53;2.40;99.90
37646;DHT22;23489;49.600;6.138;2024-02-28T04:52:19;2.30;99.90
37646;DHT22;23489;49.600;6.138;2024-02-28T04:54:45;2.40;99.90
37646;DHT22;23489;49.600;6.138;2024-02-28T04:57:10;2.40;99.90
37646;DHT22;23489;49.600;6.138;2024-02-28T04:59:36;2.40;99.90
37646;DHT22;23489;49.600;6.138;2024-02-28T05:02:01;2.40;99.90
37646;DHT22;23489;49.600;6.138;2024-02-28T05:04:27;2.30;99.90
37646;DHT22;23489;49.600;6.138;2024-02-28T05:06:53;2.30;99.90
37646;DHT22;23489;49.600;6.138;2024-02-28T05:09:18;2.30;99.90
37646;DHT22;23489;49.600;6.138;2024-02-28T05:11:44;2.30;99.90
37646;DHT22;23489;49.600;6.138;2024-02-28T05:14:10;2.20;99.90
37646;DHT22;23489;49.600;6.138;2024-02-28T05:16:36;2.20;99.90
37646;DHT22;23489;49.600;6.138;2024-02-28T05:19:02;2.20;99.90
37646;DHT22;23489;49.600;6.138;2024-02-28T05:21:29;2.20;99.90
37646;DHT22;23489;49.600;6.138;2024-02-28T05:23:55;2.20;99.90
37646;DHT22;23489;49.600;6.138;2024-02-28T05:26:21;2.20;99.90
37646;DHT22;23489;49.600;6.138;2024-02-28T05:28:46;2.30;99.90
37646;DHT22;23489;49.600;6.138;2024-02-28T05:31:23;2.20;99.90
37646;DHT22;23489;49.600;6.138;2024-02-28T05:33:53;2.30;99.90
37646;DHT22;23489;49.600;6.138;2024-02-28T05:36:21;2.20;99.90
37646;DHT22;23489;49.600;6.138;2024-02-28T05:38:47;2.20;99.90
37646;DHT22;23489;49.600;6.138;2024-02-28T05:41:12;2.20;99.90
37646;DHT22;23489;49.600;6.138;2024-02-28T05:43:40;2.20;99.90
37646;DHT22;23489;49.600;6.138;2024-02-28T05:46:05;2.20;99.90
37646;DHT22;23489;49.600;6.138;2024-02-28T05:48:31;2.20;99.90
37646;DHT22;23489;49.600;6.138;2024-02-28T05:50:56;2.20;99.90
37646;DHT22;23489;49.600;6.138;2024-02-28T05:53:22;2.10;99.90
37646;DHT22;23489;49.600;6.138;2024-02-28T05:55:52;2.10;99.90
37646;DHT22;23489;49.600;6.138;2024-02-28T05:58:19;2.20;99.90
37646;DHT22;23489;49.600;6.138;2024-02-28T06:00:45;2.20;99.90
37646;DHT22;23489;49.600;6.138;2024-02-28T06:03:11;2.20;99.90
37646;DHT22;23489;49.600;6.138;2024-02-28T06:05:36;2.20;99.90
37646;DHT22;23489;49.600;6.138;2024-02-28T06:08:02;2.20;99.90
37646;DHT22;23489;49.600;6.138;2024-02-28T06:10:27;2.20;99.90
37646;DHT22;23489;49.600;6.138;2024-02-28T06:12:53;2.20;99.90
37646;DHT22;23489;49.600;6.138;2024-02-28T06:15:19;2.20;99.90
37646;DHT22;23489;49.600;6.138;2024-02-28T06:17:45;2.20;99.90
37646;DHT22;23489;49.600;6.138;2024-02-28T06:20:10;2.20;99.90
37646;DHT22;23489;49.600;6.138;2024-02-28T06:22:36;2.30;99.90
37646;DHT22;23489;49.600;6.138;2024-02-28T06:25:01;2.20;99.90
37646;DHT22;23489;49.600;6.138;2024-02-28T06:27:27;2.20;99.90
37646;DHT22;23489;49.600;6.138;2024-02-28T06:29:52;2.20;99.90
37646;DHT22;23489;49.600;6.138;2024-02-28T06:32:18;2.20;99.90
37646;DHT22;23489;49.600;6.138;2024-02-28T06:34:44;2.20;99.90
37646;DHT22;23489;49.600;6.138;2024-02-28T06:37:09;2.20;99.90
37646;DHT22;23489;49.600;6.138;2024-02-28T06:39:35;2.20;99.90
37646;DHT22;23489;49.600;6.138;2024-02-28T06:42:00;2.20;99.90
37646;DHT22;23489;49.600;6.138;2024-02-28T06:44:26;2.20;99.90
37646;DHT22;23489;49.600;6.138;2024-02-28T06:46:51;2.30;99.90
37646;DHT22;23489;49.600;6.138;2024-02-28T06:49:17;2.30;99.90
37646;DHT22;23489;49.600;6.138;2024-02-28T06:51:44;2.30;99.90
37646;DHT22;23489;49.600;6.138;2024-02-28T06:54:10;2.30;99.90
37646;DHT22;23489;49.600;6.138;2024-02-28T06:56:36;2.20;99.90
37646;DHT22;23489;49.600;6.138;2024-02-28T06:59:02;2.20;99.90
37646;DHT22;23489;49.600;6.138;2024-02-28T07:01:29;2.20;99.90
37646;DHT22;23489;49.600;6.138;2024-02-28T07:03:55;2.00;99.90
37646;DHT22;23489;49.600;6.138;2024-02-28T07:06:20;2.00;99.90
37646;DHT22;23489;49.600;6.138;2024-02-28T07:08:46;2.00;99.90
37646;DHT22;23489;49.600;6.138;2024-02-28T07:11:15;2.00;99.90
37646;DHT22;23489;49.600;6.138;2024-02-28T07:13:41;2.00;99.90
37646;DHT22;23489;49.600;6.138;2024-02-28T07:16:07;2.00;99.90
37646;DHT22;23489;49.600;6.138;2024-02-28T07:18:33;2.00;99.90
37646;DHT22;23489;49.600;6.138;2024-02-28T07:20:59;2.00;99.90
37646;DHT22;23489;49.600;6.138;2024-02-28T07:23:26;2.10;99.90
37646;DHT22;23489;49.600;6.138;2024-02-28T07:25:51;2.10;99.90
37646;DHT22;23489;49.600;6.138;2024-02-28T07:28:17;2.10;99.90
37646;DHT22;23489;49.600;6.138;2024-02-28T07:30:43;2.10;99.90
37646;DHT22;23489;49.600;6.138;2024-02-28T07:33:10;2.00;99.90
37646;DHT22;23489;49.600;6.138;2024-02-28T07:35:46;2.00;99.90
37646;DHT22;23489;49.600;6.138;2024-02-28T07:38:12;1.90;99.90
37646;DHT22;23489;49.600;6.138;2024-02-28T07:40:38;2.00;99.90
37646;DHT22;23489;49.600;6.138;2024-02-28T07:43:04;2.10;99.90
37646;DHT22;23489;49.600;6.138;2024-02-28T07:45:29;2.10;99.90
37646;DHT22;23489;49.600;6.138;2024-02-28T07:47:55;2.20;99.90
37646;DHT22;23489;49.600;6.138;2024-02-28T07:50:21;2.20;99.90
37646;DHT22;23489;49.600;6.138;2024-02-28T07:52:46;2.20;99.90
37646;DHT22;23489;49.600;6.138;2024-02-28T07:55:12;2.30;99.90
37646;DHT22;23489;49.600;6.138;2024-02-28T07:57:38;2.30;99.90
37646;DHT22;23489;49.600;6.138;2024-02-28T08:00:04;2.30;99.90
37646;DHT22;23489;49.600;6.138;2024-02-28T08:02:37;2.30;99.90
37646;DHT22;23489;49.600;6.138;2024-02-28T08:05:04;2.20;99.90
37646;DHT22;23489;49.600;6.138;2024-02-28T08:07:32;2.30;99.90
37646;DHT22;23489;49.600;6.138;2024-02-28T08:09:58;2.20;99.90
37646;DHT22;23489;49.600;6.138;2024-02-28T08:12:24;2.30;99.90
37646;DHT22;23489;49.600;6.138;2024-02-28T08:14:49;2.30;99.90
37646;DHT22;23489;49.600;6.138;2024-02-28T08:17:15;2.40;99.90
37646;DHT22;23489;49.600;6.138;2024-02-28T08:19:41;2.60;99.90
37646;DHT22;23489;49.600;6.138;2024-02-28T08:22:07;2.60;99.90
37646;DHT22;23489;49.600;6.138;2024-02-28T08:24:33;2.70;99.90
37646;DHT22;23489;49.600;6.138;2024-02-28T08:26:58;2.80;99.90
37646;DHT22;23489;49.600;6.138;2024-02-28T08:29:24;2.80;99.90
37646;DHT22;23489;49.600;6.138;2024-02-28T08:31:51;2.90;99.90
37646;DHT22;23489;49.600;6.138;2024-02-28T08:34:17;3.00;99.90
37646;DHT22;23489;49.600;6.138;2024-02-28T08:36:43;2.90;99.90
37646;DHT22;23489;49.600;6.138;2024-02-28T08:39:08;3.00;99.90
37646;DHT22;23489;49.600;6.138;2024-02-28T08:41:35;3.00;99.90
37646;DHT22;23489;49.600;6.138;2024-02-28T08:44:00;2.90;99.90
37646;DHT22;23489;49.600;6.138;2024-02-28T08:46:26;3.00;99.90
37646;DHT22;23489;49.600;6.138;2024-02-28T08:48:52;3.10;99.90
37646;DHT22;23489;49.600;6.138;2024-02-28T08:51:17;3.30;99.90
37646;DHT22;23489;49.600;6.138;2024-02-28T08:53:43;3.50;99.90
37646;DHT22;23489;49.600;6.138;2024-02-28T08:56:09;3.30;99.90
37646;DHT22;23489;49.600;6.138;2024-02-28T08:58:35;3.30;99.90
37646;DHT22;23489;49.600;6.138;2024-02-28T09:01:00;3.10;99.90
37646;DHT22;23489;49.600;6.138;2024-02-28T09:03:26;2.80;99.90
37646;DHT22;23489;49.600;6.138;2024-02-28T09:05:51;3.00;99.90
37646;DHT22;23489;49.600;6.138;2024-02-28T09:08:18;3.10;99.90
37646;DHT22;23489;49.600;6.138;2024-02-28T09:10:43;3.30;99.90
37646;DHT22;23489;49.600;6.138;2024-02-28T09:13:09;3.30;99.90
37646;DHT22;23489;49.600;6.138;2024-02-28T09:15:37;3.40;99.90
37646;DHT22;23489;49.600;6.138;2024-02-28T09:18:03;3.50;99.90
37646;DHT22;23489;49.600;6.138;2024-02-28T09:20:29;3.60;99.90
37646;DHT22;23489;49.600;6.138;2024-02-28T09:22:55;3.60;99.90
37646;DHT22;23489;49.600;6.138;2024-02-28T09:25:20;3.50;99.90
37646;DHT22;23489;49.600;6.138;2024-02-28T09:27:47;3.60;99.90
37646;DHT22;23489;49.600;6.138;2024-02-28T09:30:13;3.80;99.90
37646;DHT22;23489;49.600;6.138;2024-02-28T09:32:39;3.70;99.90
37646;DHT22;23489;49.600;6.138;2024-02-28T09:35:05;3.70;99.90
37646;DHT22;23489;49.600;6.138;2024-02-28T09:37:32;3.80;99.90
37646;DHT22;23489;49.600;6.138;2024-02-28T09:39:57;3.80;99.90
37646;DHT22;23489;49.600;6.138;2024-02-28T09:42:24;3.70;99.90
37646;DHT22;23489;49.600;6.138;2024-02-28T09:44:49;3.80;99.90
37646;DHT22;23489;49.600;6.138;2024-02-28T09:47:15;3.90;99.90
37646;DHT22;23489;49.600;6.138;2024-02-28T09:49:42;4.20;99.90
37646;DHT22;23489;49.600;6.138;2024-02-28T09:52:08;4.30;99.90
37646;DHT22;23489;49.600;6.138;2024-02-28T09:54:34;4.50;99.90
37646;DHT22;23489;49.600;6.138;2024-02-28T09:57:00;4.50;99.90
37646;DHT22;23489;49.600;6.138;2024-02-28T09:59:26;4.60;99.90
37646;DHT22;23489;49.600;6.138;2024-02-28T10:01:56;4.70;99.90
37646;DHT22;23489;49.600;6.138;2024-02-28T10:04:26;4.70;99.90
37646;DHT22;23489;49.600;6.138;2024-02-28T10:06:51;4.80;99.90
37646;DHT22;23489;49.600;6.138;2024-02-28T10:09:17;4.80;99.90
37646;DHT22;23489;49.600;6.138;2024-02-28T10:11:42;4.50;99.90
37646;DHT22;23489;49.600;6.138;2024-02-28T10:14:18;4.50;99.90
37646;DHT22;23489;49.600;6.138;2024-02-28T10:16:47;4.70;99.90
37646;DHT22;23489;49.600;6.138;2024-02-28T10:19:13;4.90;99.90
37646;DHT22;23489;49.600;6.138;2024-02-28T10:21:38;5.10;99.90
37646;DHT22;23489;49.600;6.138;2024-02-28T10:24:04;5.20;99.90
37646;DHT22;23489;49.600;6.138;2024-02-28T10:26:30;5.20;99.90
37646;DHT22;23489;49.600;6.138;2024-02-28T10:29:03;5.40;99.90
37646;DHT22;23489;49.600;6.138;2024-02-28T10:31:32;5.70;99.90
37646;DHT22;23489;49.600;6.138;2024-02-28T10:34:00;5.80;99.90
37646;DHT22;23489;49.600;6.138;2024-02-28T10:36:27;6.00;99.90
37646;DHT22;23489;49.600;6.138;2024-02-28T10:38:56;6.50;99.90
37646;DHT22;23489;49.600;6.138;2024-02-28T10:41:21;6.70;99.90
37646;DHT22;23489;49.600;6.138;2024-02-28T10:43:48;6.80;99.90
37646;DHT22;23489;49.600;6.138;2024-02-28T10:46:16;7.10;99.90
37646;DHT22;23489;49.600;6.138;2024-02-28T10:48:42;7.20;99.90
37646;DHT22;23489;49.600;6.138;2024-02-28T10:51:09;7.30;99.90
37646;DHT22;23489;49.600;6.138;2024-02-28T10:53:41;7.50;99.90
37646;DHT22;23489;49.600;6.138;2024-02-28T10:56:11;8.00;99.90
37646;DHT22;23489;49.600;6.138;2024-02-28T10:58:47;8.40;99.90
37646;DHT22;23489;49.600;6.138;2024-02-28T11:01:16;8.30;99.90
37646;DHT22;23489;49.600;6.138;2024-02-28T11:03:42;8.00;99.90
37646;DHT22;23489;49.600;6.138;2024-02-28T11:06:20;7.80;99.90
37646;DHT22;23489;49.600;6.138;2024-02-28T11:08:48;7.40;99.90
37646;DHT22;23489;49.600;6.138;2024-02-28T11:11:14;7.50;99.90
37646;DHT22;23489;49.600;6.138;2024-02-28T11:13:56;7.70;99.90
37646;DHT22;23489;49.600;6.138;2024-02-28T11:16:28;7.40;99.90
37646;DHT22;23489;49.600;6.138;2024-02-28T11:18:54;7.60;99.90
37646;DHT22;23489;49.600;6.138;2024-02-28T11:21:26;7.80;99.90
37646;DHT22;23489;49.600;6.138;2024-02-28T11:24:01;8.00;99.90
37646;DHT22;23489;49.600;6.138;2024-02-28T11:26:27;8.00;99.90
37646;DHT22;23489;49.600;6.138;2024-02-28T11:28:54;8.20;99.90
37646;DHT22;23489;49.600;6.138;2024-02-28T11:31:21;8.40;99.90
37646;DHT22;23489;49.600;6.138;2024-02-28T11:33:47;8.10;99.90
37646;DHT22;23489;49.600;6.138;2024-02-28T11:36:13;8.00;99.90
37646;DHT22;23489;49.600;6.138;2024-02-28T11:38:40;7.90;99.90
37646;DHT22;23489;49.600;6.138;2024-02-28T11:41:06;7.60;99.90
37646;DHT22;23489;49.600;6.138;2024-02-28T11:43:32;7.50;99.90
37646;DHT22;23489;49.600;6.138;2024-02-28T11:45:58;7.60;99.90
37646;DHT22;23489;49.600;6.138;2024-02-28T11:48:25;7.80;99.90
37646;DHT22;23489;49.600;6.138;2024-02-28T11:50:54;7.80;99.90
37646;DHT22;23489;49.600;6.138;2024-02-28T11:53:19;7.80;99.90
37646;DHT22;23489;49.600;6.138;2024-02-28T11:55:48;7.90;99.90
37646;DHT22;23489;49.600;6.138;2024-02-28T11:58:14;7.80;99.90
37646;DHT22;23489;49.600;6.138;2024-02-28T12:00:50;7.60;99.90
37646;DHT22;23489;49.600;6.138;2024-02-28T12:03:26;7.40;99.90
37646;DHT22;23489;49.600;6.138;2024-02-28T12:05:53;7.50;99.90
37646;DHT22;23489;49.600;6.138;2024-02-28T12:08:19;7.60;99.90
37646;DHT22;23489;49.600;6.138;2024-02-28T12:10:46;7.80;99.90
37646;DHT22;23489;49.600;6.138;2024-02-28T12:13:18;7.90;99.90
37646;DHT22;23489;49.600;6.138;2024-02-28T12:15:45;7.90;99.90
37646;DHT22;23489;49.600;6.138;2024-02-28T12:18:11;8.10;99.90
37646;DHT22;23489;49.600;6.138;2024-02-28T12:20:37;8.10;99.90
37646;DHT22;23489;49.600;6.138;2024-02-28T12:23:06;8.10;99.90
37646;DHT22;23489;49.600;6.138;2024-02-28T12:25:33;8.10;99.90
37646;DHT22;23489;49.600;6.138;2024-02-28T12:28:00;8.00;99.90
37646;DHT22;23489;49.600;6.138;2024-02-28T12:30:26;8.10;99.90
37646;DHT22;23489;49.600;6.138;2024-02-28T12:32:52;8.10;99.90
37646;DHT22;23489;49.600;6.138;2024-02-28T12:35:18;8.00;99.90
37646;DHT22;23489;49.600;6.138;2024-02-28T12:37:43;8.10;99.90
37646;DHT22;23489;49.600;6.138;2024-02-28T12:40:09;8.20;99.90
37646;DHT22;23489;49.600;6.138;2024-02-28T12:42:35;8.30;99.90
37646;DHT22;23489;49.600;6.138;2024-02-28T12:45:02;8.30;99.90
37646;DHT22;23489;49.600;6.138;2024-02-28T12:47:28;8.30;99.90
37646;DHT22;23489;49.600;6.138;2024-02-28T12:49:57;8.30;99.90
37646;DHT22;23489;49.600;6.138;2024-02-28T12:52:23;8.50;99.90
37646;DHT22;23489;49.600;6.138;2024-02-28T12:54:49;8.80;99.90
37646;DHT22;23489;49.600;6.138;2024-02-28T12:57:15;8.80;99.90
37646;DHT22;23489;49.600;6.138;2024-02-28T12:59:42;8.90;99.90
37646;DHT22;23489;49.600;6.138;2024-02-28T13:02:09;8.90;99.90
37646;DHT22;23489;49.600;6.138;2024-02-28T13:04:35;9.00;99.90
37646;DHT22;23489;49.600;6.138;2024-02-28T13:07:00;9.00;99.90
37646;DHT22;23489;49.600;6.138;2024-02-28T13:09:26;9.10;99.90
37646;DHT22;23489;49.600;6.138;2024-02-28T13:11:52;9.00;99.90
37646;DHT22;23489;49.600;6.138;2024-02-28T13:14:18;8.90;99.90
37646;DHT22;23489;49.600;6.138;2024-02-28T13:16:44;8.90;99.90
37646;DHT22;23489;49.600;6.138;2024-02-28T13:19:10;9.00;99.90
37646;DHT22;23489;49.600;6.138;2024-02-28T13:21:35;9.00;99.90
37646;DHT22;23489;49.600;6.138;2024-02-28T13:24:02;9.20;99.90
37646;DHT22;23489;49.600;6.138;2024-02-28T13:26:28;9.10;99.90
37646;DHT22;23489;49.600;6.138;2024-02-28T13:28:54;9.20;99.90
37646;DHT22;23489;49.600;6.138;2024-02-28T13:31:20;9.20;99.90
37646;DHT22;23489;49.600;6.138;2024-02-28T13:33:46;9.10;99.90
37646;DHT22;23489;49.600;6.138;2024-02-28T13:36:13;9.10;99.90
37646;DHT22;23489;49.600;6.138;2024-02-28T13:38:39;8.90;99.90
37646;DHT22;23489;49.600;6.138;2024-02-28T13:41:05;8.90;99.90
37646;DHT22;23489;49.600;6.138;2024-02-28T13:43:31;9.10;99.90
37646;DHT22;23489;49.600;6.138;2024-02-28T13:45:56;9.10;99.90
37646;DHT22;23489;49.600;6.138;2024-02-28T13:48:26;9.20;99.90
37646;DHT22;23489;49.600;6.138;2024-02-28T13:50:54;9.30;99.90
37646;DHT22;23489;49.600;6.138;2024-02-28T13:53:20;9.30;99.90
37646;DHT22;23489;49.600;6.138;2024-02-28T13:55:46;9.10;99.90
37646;DHT22;23489;49.600;6.138;2024-02-28T13:58:12;9.10;99.90
37646;DHT22;23489;49.600;6.138;2024-02-28T14:00:38;8.90;99.90
37646;DHT22;23489;49.600;6.138;2024-02-28T14:03:05;9.00;99.90
37646;DHT22;23489;49.600;6.138;2024-02-28T14:05:32;8.80;99.90
37646;DHT22;23489;49.600;6.138;2024-02-28T14:07:57;8.80;99.90
37646;DHT22;23489;49.600;6.138;2024-02-28T14:10:24;8.90;99.90
37646;DHT22;23489;49.600;6.138;2024-02-28T14:12:50;8.80;99.90
37646;DHT22;23489;49.600;6.138;2024-02-28T14:15:21;8.90;99.90
37646;DHT22;23489;49.600;6.138;2024-02-28T14:17:48;8.90;99.90
37646;DHT22;23489;49.600;6.138;2024-02-28T14:20:14;9.00;99.90
37646;DHT22;23489;49.600;6.138;2024-02-28T14:22:40;9.00;99.90
37646;DHT22;23489;49.600;6.138;2024-02-28T14:25:17;9.00;99.90
37646;DHT22;23489;49.600;6.138;2024-02-28T14:27:44;9.00;99.90
37646;DHT22;23489;49.600;6.138;2024-02-28T14:30:11;8.90;99.90
37646;DHT22;23489;49.600;6.138;2024-02-28T14:32:38;8.80;99.90
37646;DHT22;23489;49.600;6.138;2024-02-28T14:35:05;8.80;99.90
37646;DHT22;23489;49.600;6.138;2024-02-28T14:37:32;8.80;99.90
37646;DHT22;23489;49.600;6.138;2024-02-28T14:40:00;8.70;99.90
37646;DHT22;23489;49.600;6.138;2024-02-28T14:42:43;8.70;99.90
37646;DHT22;23489;49.600;6.138;2024-02-28T14:45:11;8.70;99.90
37646;DHT22;23489;49.600;6.138;2024-02-28T14:47:40;8.70;99.90
37646;DHT22;23489;49.600;6.138;2024-02-28T14:50:07;8.60;99.90
37646;DHT22;23489;49.600;6.138;2024-02-28T14:52:37;8.50;99.90
37646;DHT22;23489;49.600;6.138;2024-02-28T14:55:04;8.50;99.90
37646;DHT22;23489;49.600;6.138;2024-02-28T14:57:30;8.50;99.90
37646;DHT22;23489;49.600;6.138;2024-02-28T14:59:59;8.50;99.90
37646;DHT22;23489;49.600;6.138;2024-02-28T15:02:25;8.60;99.90
37646;DHT22;23489;49.600;6.138;2024-02-28T15:04:51;8.60;99.90
37646;DHT22;23489;49.600;6.138;2024-02-28T15:07:17;8.50;99.90
37646;DHT22;23489;49.600;6.138;2024-02-28T15:09:43;8.50;99.90
37646;DHT22;23489;49.600;6.138;2024-02-28T15:12:09;8.50;99.90
37646;DHT22;23489;49.600;6.138;2024-02-28T15:14:35;8.40;99.90
37646;DHT22;23489;49.600;6.138;2024-02-28T15:17:00;8.30;99.90
37646;DHT22;23489;49.600;6.138;2024-02-28T15:19:27;8.30;99.90
37646;DHT22;23489;49.600;6.138;2024-02-28T15:21:53;8.20;99.90
37646;DHT22;23489;49.600;6.138;2024-02-28T15:24:20;8.00;99.90
37646;DHT22;23489;49.600;6.138;2024-02-28T15:26:47;8.00;99.90
37646;DHT22;23489;49.600;6.138;2024-02-28T15:29:13;7.90;99.90
37646;DHT22;23489;49.600;6.138;2024-02-28T15:31:38;7.80;99.90
37646;DHT22;23489;49.600;6.138;2024-02-28T15:34:04;7.70;99.90
37646;DHT22;23489;49.600;6.138;2024-02-28T15:36:30;7.60;99.90
37646;DHT22;23489;49.600;6.138;2024-02-28T15:38:55;7.60;99.90